Industrial, Minnesota
Current Conditions -  °F | °C
As of 10:18 AM on Monday 22 Dec 2014 (Local Time) from KDLH Reporting Station
Light Snow Light Snow  
Wind Chill: 25°   Ceiling: 200
Heat Index: 33°   Visibility: 0.25mi
Dew Point: 32°   Wind: 9mph
Humidity: 96%   Direction: 110°ESE
Pressure: 29.69"   Gusts: NA
Location:  46.8859°N, 92.4258°W
Report Text: KDLH 221618Z 11008KT 1/4SM R09/1800V4000FT -SN FG VV002 01/00 A2969 RMK AO2 P0000 T00060000
Loading
Personal Weather Stations






























Interactive Weather Map New forecast layout! Learn more

10-Day Weather Forecast

Advertisements
Track Severe Weather on mobile